sensor_id;sensor_type;location;lat;lon;timestamp;temperature;humidity
69189;DHT22;56302;52.322;5.926;2023-02-12T00:02:06;5.90;94.80
69189;DHT22;56302;52.322;5.926;2023-02-12T00:04:32;5.80;94.60
69189;DHT22;56302;52.322;5.926;2023-02-12T00:06:57;5.80;94.50
69189;DHT22;56302;52.322;5.926;2023-02-12T00:09:23;5.80;94.20
69189;DHT22;56302;52.322;5.926;2023-02-12T00:11:49;5.70;93.80
69189;DHT22;56302;52.322;5.926;2023-02-12T00:14:14;5.60;93.50
69189;DHT22;56302;52.322;5.926;2023-02-12T00:16:40;5.50;93.30
69189;DHT22;56302;52.322;5.926;2023-02-12T00:19:05;5.40;93.20
69189;DHT22;56302;52.322;5.926;2023-02-12T00:21:31;5.40;93.30
69189;DHT22;56302;52.322;5.926;2023-02-12T00:23:56;5.40;93.20
69189;DHT22;56302;52.322;5.926;2023-02-12T00:26:23;5.30;92.90
69189;DHT22;56302;52.322;5.926;2023-02-12T00:28:49;5.20;92.60
69189;DHT22;56302;52.322;5.926;2023-02-12T00:31:18;5.20;92.60
69189;DHT22;56302;52.322;5.926;2023-02-12T00:33:44;5.00;92.80
69189;DHT22;56302;52.322;5.926;2023-02-12T00:36:13;5.00;92.70
69189;DHT22;56302;52.322;5.926;2023-02-12T00:38:39;4.90;92.60
69189;DHT22;56302;52.322;5.926;2023-02-12T00:41:05;4.80;92.40
69189;DHT22;56302;52.322;5.926;2023-02-12T00:43:30;4.70;93.00
69189;DHT22;56302;52.322;5.926;2023-02-12T00:45:56;4.70;93.30
69189;DHT22;56302;52.322;5.926;2023-02-12T00:48:21;4.60;93.60
69189;DHT22;56302;52.322;5.926;2023-02-12T00:50:48;4.60;93.40
69189;DHT22;56302;52.322;5.926;2023-02-12T00:53:14;4.60;93.20
69189;DHT22;56302;52.322;5.926;2023-02-12T00:55:40;4.40;93.70
69189;DHT22;56302;52.322;5.926;2023-02-12T00:58:06;4.30;94.10
69189;DHT22;56302;52.322;5.926;2023-02-12T01:00:31;4.30;94.60
69189;DHT22;56302;52.322;5.926;2023-02-12T01:02:57;4.30;94.30
69189;DHT22;56302;52.322;5.926;2023-02-12T01:05:23;4.20;94.40
69189;DHT22;56302;52.322;5.926;2023-02-12T01:07:50;4.30;94.30
69189;DHT22;56302;52.322;5.926;2023-02-12T01:10:16;4.20;94.00
69189;DHT22;56302;52.322;5.926;2023-02-12T01:12:41;4.20;93.90
69189;DHT22;56302;52.322;5.926;2023-02-12T01:15:07;4.20;93.90
69189;DHT22;56302;52.322;5.926;2023-02-12T01:17:35;4.20;93.70
69189;DHT22;56302;52.322;5.926;2023-02-12T01:20:01;4.10;93.90
69189;DHT22;56302;52.322;5.926;2023-02-12T01:22:27;4.10;93.80
69189;DHT22;56302;52.322;5.926;2023-02-12T01:24:52;4.00;94.30
69189;DHT22;56302;52.322;5.926;2023-02-12T01:27:18;4.10;94.20
69189;DHT22;56302;52.322;5.926;2023-02-12T01:29:43;4.10;94.10
69189;DHT22;56302;52.322;5.926;2023-02-12T01:32:10;4.00;93.80
69189;DHT22;56302;52.322;5.926;2023-02-12T01:34:37;4.00;93.90
69189;DHT22;56302;52.322;5.926;2023-02-12T01:37:02;4.00;93.80
69189;DHT22;56302;52.322;5.926;2023-02-12T01:39:28;3.90;93.70
69189;DHT22;56302;52.322;5.926;2023-02-12T01:41:54;3.90;93.90
69189;DHT22;56302;52.322;5.926;2023-02-12T01:44:24;3.70;94.00
69189;DHT22;56302;52.322;5.926;2023-02-12T01:47:01;3.60;94.40
69189;DHT22;56302;52.322;5.926;2023-02-12T01:49:37;3.70;94.60
69189;DHT22;56302;52.322;5.926;2023-02-12T01:52:19;3.70;94.50
69189;DHT22;56302;52.322;5.926;2023-02-12T01:54:46;3.60;94.30
69189;DHT22;56302;52.322;5.926;2023-02-12T01:57:13;3.60;93.90
69189;DHT22;56302;52.322;5.926;2023-02-12T01:59:40;3.60;93.70
69189;DHT22;56302;52.322;5.926;2023-02-12T02:02:07;3.60;93.50
69189;DHT22;56302;52.322;5.926;2023-02-12T02:04:42;3.60;93.50
69189;DHT22;56302;52.322;5.926;2023-02-12T02:07:09;3.50;93.40
69189;DHT22;56302;52.322;5.926;2023-02-12T02:09:37;3.50;93.20
69189;DHT22;56302;52.322;5.926;2023-02-12T02:12:03;3.40;93.10
69189;DHT22;56302;52.322;5.926;2023-02-12T02:14:49;3.40;93.20
69189;DHT22;56302;52.322;5.926;2023-02-12T02:20:37;2.90;93.30
69189;DHT22;56302;52.322;5.926;2023-02-12T02:28:47;2.90;94.30
69189;DHT22;56302;52.322;5.926;2023-02-12T02:33:58;2.90;93.40
69189;DHT22;56302;52.322;5.926;2023-02-12T02:39:53;2.80;93.20
69189;DHT22;56302;52.322;5.926;2023-02-12T02:42:33;2.50;93.80
69189;DHT22;56302;52.322;5.926;2023-02-12T02:45:46;2.30;95.20
69189;DHT22;56302;52.322;5.926;2023-02-12T02:48:23;2.30;96.20
69189;DHT22;56302;52.322;5.926;2023-02-12T02:50:57;2.40;96.10
69189;DHT22;56302;52.322;5.926;2023-02-12T02:53:51;2.40;95.60
69189;DHT22;56302;52.322;5.926;2023-02-12T02:56:20;2.30;94.90
69189;DHT22;56302;52.322;5.926;2023-02-12T02:58:52;2.10;95.70
69189;DHT22;56302;52.322;5.926;2023-02-12T03:01:27;2.10;96.40
69189;DHT22;56302;52.322;5.926;2023-02-12T03:04:02;2.10;96.80
69189;DHT22;56302;52.322;5.926;2023-02-12T03:06:44;2.20;96.70
69189;DHT22;56302;52.322;5.926;2023-02-12T03:09:25;2.30;96.10
69189;DHT22;56302;52.322;5.926;2023-02-12T03:11:56;2.40;95.30
69189;DHT22;56302;52.322;5.926;2023-02-12T03:14:37;2.30;94.70
69189;DHT22;56302;52.322;5.926;2023-02-12T03:19:32;2.10;94.90
69189;DHT22;56302;52.322;5.926;2023-02-12T03:22:20;1.90;95.70
69189;DHT22;56302;52.322;5.926;2023-02-12T03:24:50;1.90;96.20
69189;DHT22;56302;52.322;5.926;2023-02-12T03:27:28;2.00;95.90
69189;DHT22;56302;52.322;5.926;2023-02-12T03:29:55;2.00;95.30
69189;DHT22;56302;52.322;5.926;2023-02-12T03:32:29;2.00;94.90
69189;DHT22;56302;52.322;5.926;2023-02-12T03:37:31;1.80;94.70
69189;DHT22;56302;52.322;5.926;2023-02-12T03:40:17;1.80;94.80
69189;DHT22;56302;52.322;5.926;2023-02-12T03:42:56;1.90;94.80
69189;DHT22;56302;52.322;5.926;2023-02-12T03:48:02;1.90;93.90
69189;DHT22;56302;52.322;5.926;2023-02-12T03:50:56;1.80;93.90
69189;DHT22;56302;52.322;5.926;2023-02-12T03:53:24;1.50;94.80
69189;DHT22;56302;52.322;5.926;2023-02-12T03:55:53;1.30;95.80
69189;DHT22;56302;52.322;5.926;2023-02-12T03:58:23;1.40;96.50
69189;DHT22;56302;52.322;5.926;2023-02-12T04:00:51;1.40;96.60
69189;DHT22;56302;52.322;5.926;2023-02-12T04:03:16;1.50;96.10
69189;DHT22;56302;52.322;5.926;2023-02-12T04:05:42;1.60;95.60
69189;DHT22;56302;52.322;5.926;2023-02-12T04:08:09;1.50;95.10
69189;DHT22;56302;52.322;5.926;2023-02-12T04:10:58;1.40;95.50
69189;DHT22;56302;52.322;5.926;2023-02-12T04:13:41;1.40;96.20
69189;DHT22;56302;52.322;5.926;2023-02-12T04:19:05;1.60;96.00
69189;DHT22;56302;52.322;5.926;2023-02-12T04:24:39;1.60;96.00
69189;DHT22;56302;52.322;5.926;2023-02-12T04:27:24;1.50;96.90
69189;DHT22;56302;52.322;5.926;2023-02-12T04:30:12;1.50;97.50
69189;DHT22;56302;52.322;5.926;2023-02-12T04:32:52;1.50;97.80
69189;DHT22;56302;52.322;5.926;2023-02-12T04:35:31;1.60;98.00
69189;DHT22;56302;52.322;5.926;2023-02-12T04:38:20;1.70;97.70
69189;DHT22;56302;52.322;5.926;2023-02-12T04:40:48;1.70;97.60
69189;DHT22;56302;52.322;5.926;2023-02-12T04:43:34;1.80;97.50
69189;DHT22;56302;52.322;5.926;2023-02-12T04:46:01;1.80;97.70
69189;DHT22;56302;52.322;5.926;2023-02-12T04:48:27;1.80;97.80
69189;DHT22;56302;52.322;5.926;2023-02-12T04:50:52;1.80;97.80
69189;DHT22;56302;52.322;5.926;2023-02-12T04:53:18;1.90;97.80
69189;DHT22;56302;52.322;5.926;2023-02-12T04:55:43;1.90;97.60
69189;DHT22;56302;52.322;5.926;2023-02-12T04:58:09;1.90;97.50
69189;DHT22;56302;52.322;5.926;2023-02-12T05:00:35;1.90;97.50
69189;DHT22;56302;52.322;5.926;2023-02-12T05:03:01;1.90;97.80
69189;DHT22;56302;52.322;5.926;2023-02-12T05:05:26;1.90;98.00
69189;DHT22;56302;52.322;5.926;2023-02-12T05:07:52;1.90;98.30
69189;DHT22;56302;52.322;5.926;2023-02-12T05:10:18;1.90;98.40
69189;DHT22;56302;52.322;5.926;2023-02-12T05:12:44;2.00;98.50
69189;DHT22;56302;52.322;5.926;2023-02-12T05:15:09;2.00;98.60
69189;DHT22;56302;52.322;5.926;2023-02-12T05:17:35;2.00;98.80
69189;DHT22;56302;52.322;5.926;2023-02-12T05:20:01;2.00;99.00
69189;DHT22;56302;52.322;5.926;2023-02-12T05:22:26;2.00;99.20
69189;DHT22;56302;52.322;5.926;2023-02-12T05:24:52;2.00;99.30
69189;DHT22;56302;52.322;5.926;2023-02-12T05:27:17;2.00;99.40
69189;DHT22;56302;52.322;5.926;2023-02-12T05:29:43;2.00;99.50
69189;DHT22;56302;52.322;5.926;2023-02-12T05:32:08;2.10;99.50
69189;DHT22;56302;52.322;5.926;2023-02-12T05:34:35;2.10;99.60
69189;DHT22;56302;52.322;5.926;2023-02-12T05:37:00;2.10;99.60
69189;DHT22;56302;52.322;5.926;2023-02-12T05:39:26;2.20;99.80
69189;DHT22;56302;52.322;5.926;2023-02-12T05:41:51;2.20;99.90
69189;DHT22;56302;52.322;5.926;2023-02-12T05:44:17;2.30;99.90
69189;DHT22;56302;52.322;5.926;2023-02-12T05:46:42;2.30;99.90
69189;DHT22;56302;52.322;5.926;2023-02-12T05:49:09;2.30;99.90
69189;DHT22;56302;52.322;5.926;2023-02-12T05:51:35;2.30;99.90
69189;DHT22;56302;52.322;5.926;2023-02-12T05:54:03;2.30;99.90
69189;DHT22;56302;52.322;5.926;2023-02-12T05:56:32;2.40;99.80
69189;DHT22;56302;52.322;5.926;2023-02-12T05:59:00;2.40;99.70
69189;DHT22;56302;52.322;5.926;2023-02-12T06:01:36;2.40;99.70
69189;DHT22;56302;52.322;5.926;2023-02-12T06:04:03;2.40;99.70
69189;DHT22;56302;52.322;5.926;2023-02-12T06:06:30;2.50;99.60
69189;DHT22;56302;52.322;5.926;2023-02-12T06:08:56;2.50;99.70
69189;DHT22;56302;52.322;5.926;2023-02-12T06:11:23;2.50;99.70
69189;DHT22;56302;52.322;5.926;2023-02-12T06:13:49;2.50;99.70
69189;DHT22;56302;52.322;5.926;2023-02-12T06:18:41;2.60;99.90
69189;DHT22;56302;52.322;5.926;2023-02-12T06:21:07;2.60;99.90
69189;DHT22;56302;52.322;5.926;2023-02-12T06:23:32;2.60;99.90
69189;DHT22;56302;52.322;5.926;2023-02-12T06:25:58;2.70;99.90
69189;DHT22;56302;52.322;5.926;2023-02-12T06:28:24;2.70;99.90
69189;DHT22;56302;52.322;5.926;2023-02-12T06:30:49;2.70;99.90
69189;DHT22;56302;52.322;5.926;2023-02-12T06:33:15;2.70;99.90
69189;DHT22;56302;52.322;5.926;2023-02-12T06:35:40;2.70;99.90
69189;DHT22;56302;52.322;5.926;2023-02-12T06:38:06;2.80;99.90
69189;DHT22;56302;52.322;5.926;2023-02-12T06:40:32;2.80;99.90
69189;DHT22;56302;52.322;5.926;2023-02-12T06:42:58;2.80;99.90
69189;DHT22;56302;52.322;5.926;2023-02-12T06:45:23;2.80;99.90
69189;DHT22;56302;52.322;5.926;2023-02-12T06:47:49;2.90;99.90
69189;DHT22;56302;52.322;5.926;2023-02-12T06:50:15;2.90;99.90
69189;DHT22;56302;52.322;5.926;2023-02-12T06:52:40;2.90;99.90
69189;DHT22;56302;52.322;5.926;2023-02-12T06:55:06;3.00;99.90
69189;DHT22;56302;52.322;5.926;2023-02-12T06:57:32;3.00;99.90
69189;DHT22;56302;52.322;5.926;2023-02-12T06:59:57;3.00;99.90
69189;DHT22;56302;52.322;5.926;2023-02-12T07:02:23;3.10;99.90
69189;DHT22;56302;52.322;5.926;2023-02-12T07:04:48;3.10;99.90
69189;DHT22;56302;52.322;5.926;2023-02-12T07:07:14;3.10;99.90
69189;DHT22;56302;52.322;5.926;2023-02-12T07:09:39;3.20;99.90
69189;DHT22;56302;52.322;5.926;2023-02-12T07:12:05;3.20;99.90
69189;DHT22;56302;52.322;5.926;2023-02-12T07:14:31;3.20;99.90
69189;DHT22;56302;52.322;5.926;2023-02-12T07:16:56;3.30;99.90
69189;DHT22;56302;52.322;5.926;2023-02-12T07:19:22;3.30;99.90
69189;DHT22;56302;52.322;5.926;2023-02-12T07:21:48;3.30;99.90
69189;DHT22;56302;52.322;5.926;2023-02-12T07:24:14;3.30;99.90
69189;DHT22;56302;52.322;5.926;2023-02-12T07:26:40;3.30;99.90
69189;DHT22;56302;52.322;5.926;2023-02-12T07:29:06;3.40;99.90
69189;DHT22;56302;52.322;5.926;2023-02-12T07:31:32;3.40;99.90
69189;DHT22;56302;52.322;5.926;2023-02-12T07:33:59;3.50;99.90
69189;DHT22;56302;52.322;5.926;2023-02-12T07:36:26;3.50;99.90
69189;DHT22;56302;52.322;5.926;2023-02-12T07:38:54;3.60;99.90
69189;DHT22;56302;52.322;5.926;2023-02-12T07:41:25;3.60;99.90
69189;DHT22;56302;52.322;5.926;2023-02-12T07:43:56;3.60;99.90
69189;DHT22;56302;52.322;5.926;2023-02-12T07:46:28;3.70;99.90
69189;DHT22;56302;52.322;5.926;2023-02-12T07:48:54;3.80;99.90
69189;DHT22;56302;52.322;5.926;2023-02-12T07:51:20;3.80;99.90
69189;DHT22;56302;52.322;5.926;2023-02-12T07:53:46;3.90;99.90
69189;DHT22;56302;52.322;5.926;2023-02-12T07:56:17;3.90;99.90
69189;DHT22;56302;52.322;5.926;2023-02-12T07:58:43;4.00;99.90
69189;DHT22;56302;52.322;5.926;2023-02-12T08:01:22;4.10;99.90
69189;DHT22;56302;52.322;5.926;2023-02-12T08:03:49;4.20;99.90
69189;DHT22;56302;52.322;5.926;2023-02-12T08:06:17;4.20;99.90
69189;DHT22;56302;52.322;5.926;2023-02-12T08:08:44;4.20;99.90
69189;DHT22;56302;52.322;5.926;2023-02-12T08:11:11;4.40;99.90
69189;DHT22;56302;52.322;5.926;2023-02-12T08:13:37;4.40;99.90
69189;DHT22;56302;52.322;5.926;2023-02-12T08:16:05;4.50;99.90
69189;DHT22;56302;52.322;5.926;2023-02-12T08:18:32;4.50;99.90
69189;DHT22;56302;52.322;5.926;2023-02-12T08:21:05;4.60;99.90
69189;DHT22;56302;52.322;5.926;2023-02-12T08:23:32;4.60;99.90
69189;DHT22;56302;52.322;5.926;2023-02-12T08:28:41;4.80;99.90
69189;DHT22;56302;52.322;5.926;2023-02-12T08:31:11;4.90;99.90
69189;DHT22;56302;52.322;5.926;2023-02-12T08:33:37;5.10;99.90
69189;DHT22;56302;52.322;5.926;2023-02-12T08:38:31;5.20;99.90
69189;DHT22;56302;52.322;5.926;2023-02-12T08:41:00;5.20;99.90
69189;DHT22;56302;52.322;5.926;2023-02-12T08:43:26;5.40;99.90
69189;DHT22;56302;52.322;5.926;2023-02-12T08:45:52;5.40;99.90
69189;DHT22;56302;52.322;5.926;2023-02-12T08:48:19;5.50;99.90
69189;DHT22;56302;52.322;5.926;2023-02-12T08:50:45;5.60;99.90
69189;DHT22;56302;52.322;5.926;2023-02-12T08:53:11;5.60;99.90
69189;DHT22;56302;52.322;5.926;2023-02-12T08:55:37;5.70;99.90
69189;DHT22;56302;52.322;5.926;2023-02-12T08:58:02;5.80;99.90
69189;DHT22;56302;52.322;5.926;2023-02-12T09:00:28;5.90;99.90
69189;DHT22;56302;52.322;5.926;2023-02-12T09:02:53;6.00;99.90
69189;DHT22;56302;52.322;5.926;2023-02-12T09:05:19;6.00;99.90
69189;DHT22;56302;52.322;5.926;2023-02-12T09:07:44;6.10;99.90
69189;DHT22;56302;52.322;5.926;2023-02-12T09:10:10;6.20;99.90
69189;DHT22;56302;52.322;5.926;2023-02-12T09:12:35;6.30;99.90
69189;DHT22;56302;52.322;5.926;2023-02-12T09:15:01;6.30;99.90
69189;DHT22;56302;52.322;5.926;2023-02-12T09:17:27;6.40;99.90
69189;DHT22;56302;52.322;5.926;2023-02-12T09:19:53;6.40;99.90
69189;DHT22;56302;52.322;5.926;2023-02-12T09:22:18;6.40;99.90
69189;DHT22;56302;52.322;5.926;2023-02-12T09:24:44;6.40;99.90
69189;DHT22;56302;52.322;5.926;2023-02-12T09:27:09;6.40;99.90
69189;DHT22;56302;52.322;5.926;2023-02-12T09:29:35;6.50;99.90
69189;DHT22;56302;52.322;5.926;2023-02-12T09:32:01;6.60;99.90
69189;DHT22;56302;52.322;5.926;2023-02-12T09:34:29;6.70;99.90
69189;DHT22;56302;52.322;5.926;2023-02-12T09:36:55;6.70;99.90
69189;DHT22;56302;52.322;5.926;2023-02-12T09:39:20;6.90;99.90
69189;DHT22;56302;52.322;5.926;2023-02-12T09:44:57;7.10;99.90
69189;DHT22;56302;52.322;5.926;2023-02-12T09:47:43;7.20;99.90
69189;DHT22;56302;52.322;5.926;2023-02-12T09:50:32;7.30;99.50
69189;DHT22;56302;52.322;5.926;2023-02-12T09:53:00;7.50;99.00
69189;DHT22;56302;52.322;5.926;2023-02-12T09:55:29;7.70;97.90
69189;DHT22;56302;52.322;5.926;2023-02-12T09:57:55;7.80;96.90
69189;DHT22;56302;52.322;5.926;2023-02-12T10:00:28;7.90;96.30
69189;DHT22;56302;52.322;5.926;2023-02-12T10:02:59;8.00;95.50
69189;DHT22;56302;52.322;5.926;2023-02-12T10:05:31;8.00;94.50
69189;DHT22;56302;52.322;5.926;2023-02-12T10:11:00;8.00;92.60
69189;DHT22;56302;52.322;5.926;2023-02-12T10:16:42;8.10;92.50
69189;DHT22;56302;52.322;5.926;2023-02-12T10:19:30;8.20;92.10
69189;DHT22;56302;52.322;5.926;2023-02-12T10:27:51;8.50;90.80
69189;DHT22;56302;52.322;5.926;2023-02-12T10:30:41;8.50;90.20
69189;DHT22;56302;52.322;5.926;2023-02-12T10:33:14;8.60;90.40
69189;DHT22;56302;52.322;5.926;2023-02-12T10:35:46;8.60;90.10
69189;DHT22;56302;52.322;5.926;2023-02-12T10:38:19;8.60;88.50
69189;DHT22;56302;52.322;5.926;2023-02-12T10:40:45;8.60;88.70
69189;DHT22;56302;52.322;5.926;2023-02-12T10:43:12;8.60;89.00
69189;DHT22;56302;52.322;5.926;2023-02-12T10:45:40;8.60;87.30
69189;DHT22;56302;52.322;5.926;2023-02-12T10:48:26;8.50;87.00
69189;DHT22;56302;52.322;5.926;2023-02-12T10:53:35;8.60;87.60
69189;DHT22;56302;52.322;5.926;2023-02-12T10:58:39;8.60;87.60
69189;DHT22;56302;52.322;5.926;2023-02-12T11:01:20;8.60;86.70
69189;DHT22;56302;52.322;5.926;2023-02-12T11:03:47;8.60;86.10
69189;DHT22;56302;52.322;5.926;2023-02-12T11:06:15;8.50;86.20
69189;DHT22;56302;52.322;5.926;2023-02-12T11:08:42;8.60;86.20
69189;DHT22;56302;52.322;5.926;2023-02-12T11:11:15;8.60;87.10
69189;DHT22;56302;52.322;5.926;2023-02-12T11:14:06;8.60;86.40
69189;DHT22;56302;52.322;5.926;2023-02-12T11:16:51;8.60;87.20
69189;DHT22;56302;52.322;5.926;2023-02-12T11:19:27;8.60;86.10
69189;DHT22;56302;52.322;5.926;2023-02-12T11:22:06;8.60;87.30
69189;DHT22;56302;52.322;5.926;2023-02-12T11:24:34;8.60;87.60
69189;DHT22;56302;52.322;5.926;2023-02-12T11:27:27;8.60;87.30
69189;DHT22;56302;52.322;5.926;2023-02-12T11:32:35;8.60;87.00
69189;DHT22;56302;52.322;5.926;2023-02-12T11:35:10;8.60;86.90
69189;DHT22;56302;52.322;5.926;2023-02-12T11:37:41;8.60;87.60
69189;DHT22;56302;52.322;5.926;2023-02-12T11:40:15;8.70;87.60
69189;DHT22;56302;52.322;5.926;2023-02-12T11:42:47;8.70;87.50
69189;DHT22;56302;52.322;5.926;2023-02-12T11:45:19;8.70;87.50
69189;DHT22;56302;52.322;5.926;2023-02-12T11:47:46;8.60;86.90
69189;DHT22;56302;52.322;5.926;2023-02-12T11:50:30;8.70;87.40
69189;DHT22;56302;52.322;5.926;2023-02-12T11:53:02;8.60;87.20
69189;DHT22;56302;52.322;5.926;2023-02-12T11:55:37;8.60;86.90
69189;DHT22;56302;52.322;5.926;2023-02-12T11:58:20;8.60;87.30
69189;DHT22;56302;52.322;5.926;2023-02-12T12:04:05;8.60;86.80
69189;DHT22;56302;52.322;5.926;2023-02-12T12:06:47;8.60;87.30
69189;DHT22;56302;52.322;5.926;2023-02-12T12:09:23;8.60;86.50
69189;DHT22;56302;52.322;5.926;2023-02-12T12:12:12;8.60;86.40
69189;DHT22;56302;52.322;5.926;2023-02-12T12:15:01;8.70;86.90
69189;DHT22;56302;52.322;5.926;2023-02-12T12:17:58;8.70;87.30
69189;DHT22;56302;52.322;5.926;2023-02-12T12:20:49;8.60;86.90
69189;DHT22;56302;52.322;5.926;2023-02-12T12:23:44;8.60;86.60
69189;DHT22;56302;52.322;5.926;2023-02-12T12:26:16;8.60;85.70
69189;DHT22;56302;52.322;5.926;2023-02-12T12:31:36;8.50;86.10
69189;DHT22;56302;52.322;5.926;2023-02-12T12:39:16;8.50;86.10
69189;DHT22;56302;52.322;5.926;2023-02-12T12:42:13;8.50;86.00
69189;DHT22;56302;52.322;5.926;2023-02-12T12:45:01;8.50;86.30
69189;DHT22;56302;52.322;5.926;2023-02-12T13:09:28;8.40;84.80
69189;DHT22;56302;52.322;5.926;2023-02-12T13:12:33;8.40;84.20
69189;DHT22;56302;52.322;5.926;2023-02-12T13:15:12;8.40;84.80
69189;DHT22;56302;52.322;5.926;2023-02-12T13:17:46;8.40;85.10
69189;DHT22;56302;52.322;5.926;2023-02-12T13:22:55;8.40;85.20
69189;DHT22;56302;52.322;5.926;2023-02-12T13:25:35;8.40;85.00
69189;DHT22;56302;52.322;5.926;2023-02-12T13:28:05;8.30;84.10
69189;DHT22;56302;52.322;5.926;2023-02-12T13:30:41;8.30;84.40
69189;DHT22;56302;52.322;5.926;2023-02-12T13:33:18;8.30;84.90
69189;DHT22;56302;52.322;5.926;2023-02-12T13:35:48;8.30;84.40
69189;DHT22;56302;52.322;5.926;2023-02-12T13:38:25;8.30;83.90
69189;DHT22;56302;52.322;5.926;2023-02-12T13:40:59;8.30;84.00
69189;DHT22;56302;52.322;5.926;2023-02-12T13:49:25;8.30;84.90
69189;DHT22;56302;52.322;5.926;2023-02-12T13:52:01;8.30;85.30
69189;DHT22;56302;52.322;5.926;2023-02-12T13:57:18;8.20;84.50
69189;DHT22;56302;52.322;5.926;2023-02-12T13:59:46;8.20;83.20
69189;DHT22;56302;52.322;5.926;2023-02-12T14:05:01;8.20;85.10
69189;DHT22;56302;52.322;5.926;2023-02-12T14:07:45;8.20;84.70
69189;DHT22;56302;52.322;5.926;2023-02-12T14:10:30;8.20;84.90
69189;DHT22;56302;52.322;5.926;2023-02-12T14:13:19;8.10;84.40
69189;DHT22;56302;52.322;5.926;2023-02-12T14:15:49;8.10;84.50
69189;DHT22;56302;52.322;5.926;2023-02-12T14:18:35;8.10;84.60
69189;DHT22;56302;52.322;5.926;2023-02-12T14:23:36;8.00;84.70
69189;DHT22;56302;52.322;5.926;2023-02-12T14:26:11;8.10;85.70
69189;DHT22;56302;52.322;5.926;2023-02-12T14:28:56;8.10;85.40
69189;DHT22;56302;52.322;5.926;2023-02-12T14:36:40;8.10;85.60
69189;DHT22;56302;52.322;5.926;2023-02-12T14:41:47;8.00;84.80
69189;DHT22;56302;52.322;5.926;2023-02-12T14:46:48;8.00;85.20
69189;DHT22;56302;52.322;5.926;2023-02-12T14:57:11;7.90;84.60
69189;DHT22;56302;52.322;5.926;2023-02-12T14:59:44;7.80;84.70
69189;DHT22;56302;52.322;5.926;2023-02-12T15:02:25;7.80;84.10
69189;DHT22;56302;52.322;5.926;2023-02-12T15:04:53;7.80;83.90
69189;DHT22;56302;52.322;5.926;2023-02-12T15:07:30;7.80;85.00
69189;DHT22;56302;52.322;5.926;2023-02-12T15:10:00;7.80;85.10
69189;DHT22;56302;52.322;5.926;2023-02-12T15:12:37;7.70;85.00
69189;DHT22;56302;52.322;5.926;2023-02-12T15:15:12;7.80;85.20
69189;DHT22;56302;52.322;5.926;2023-02-12T15:17:41;7.70;85.30
69189;DHT22;56302;52.322;5.926;2023-02-12T15:20:19;7.70;85.30
69189;DHT22;56302;52.322;5.926;2023-02-12T15:22:45;7.70;85.30
69189;DHT22;56302;52.322;5.926;2023-02-12T15:27:49;7.70;85.40
69189;DHT22;56302;52.322;5.926;2023-02-12T15:30:22;7.70;85.20
69189;DHT22;56302;52.322;5.926;2023-02-12T15:32:48;7.70;85.10
69189;DHT22;56302;52.322;5.926;2023-02-12T15:35:38;7.70;85.90
69189;DHT22;56302;52.322;5.926;2023-02-12T15:38:08;7.60;86.10
69189;DHT22;56302;52.322;5.926;2023-02-12T15:40:55;7.60;86.20
69189;DHT22;56302;52.322;5.926;2023-02-12T15:43:26;7.60;86.10
69189;DHT22;56302;52.322;5.926;2023-02-12T15:45:52;7.50;85.90
69189;DHT22;56302;52.322;5.926;2023-02-12T15:48:20;7.50;84.80
69189;DHT22;56302;52.322;5.926;2023-02-12T15:50:56;7.50;85.30
69189;DHT22;56302;52.322;5.926;2023-02-12T15:53:27;7.50;84.80
69189;DHT22;56302;52.322;5.926;2023-02-12T15:55:54;7.50;84.40
69189;DHT22;56302;52.322;5.926;2023-02-12T15:58:26;7.40;84.80
69189;DHT22;56302;52.322;5.926;2023-02-12T16:00:54;7.40;84.20
69189;DHT22;56302;52.322;5.926;2023-02-12T16:05:50;7.40;84.30
69189;DHT22;56302;52.322;5.926;2023-02-12T16:08:18;7.40;84.50
69189;DHT22;56302;52.322;5.926;2023-02-12T16:10:47;7.40;84.40
69189;DHT22;56302;52.322;5.926;2023-02-12T16:13:33;7.40;84.70
69189;DHT22;56302;52.322;5.926;2023-02-12T16:18:37;7.30;84.40
69189;DHT22;56302;52.322;5.926;2023-02-12T16:21:09;7.30;84.50
69189;DHT22;56302;52.322;5.926;2023-02-12T16:23:36;7.30;85.10
69189;DHT22;56302;52.322;5.926;2023-02-12T16:26:02;7.30;85.20
69189;DHT22;56302;52.322;5.926;2023-02-12T16:28:29;7.30;85.30
69189;DHT22;56302;52.322;5.926;2023-02-12T16:31:10;7.30;85.90
69189;DHT22;56302;52.322;5.926;2023-02-12T16:38:51;7.20;86.00
69189;DHT22;56302;52.322;5.926;2023-02-12T16:44:34;7.20;86.30
69189;DHT22;56302;52.322;5.926;2023-02-12T16:46:45;7.10;85.70
69189;DHT22;56302;52.322;5.926;2023-02-12T16:49:19;7.10;86.40
69189;DHT22;56302;52.322;5.926;2023-02-12T16:51:46;7.10;86.30
69189;DHT22;56302;52.322;5.926;2023-02-12T16:54:32;7.10;86.50
69189;DHT22;56302;52.322;5.926;2023-02-12T16:56:58;7.00;86.20
69189;DHT22;56302;52.322;5.926;2023-02-12T16:59:24;7.00;86.10
69189;DHT22;56302;52.322;5.926;2023-02-12T17:02:09;7.00;86.20
69189;DHT22;56302;52.322;5.926;2023-02-12T17:04:35;7.00;86.50
69189;DHT22;56302;52.322;5.926;2023-02-12T17:07:01;7.00;86.80
69189;DHT22;56302;52.322;5.926;2023-02-12T17:09:27;7.00;86.70
69189;DHT22;56302;52.322;5.926;2023-02-12T17:11:55;7.00;86.40
69189;DHT22;56302;52.322;5.926;2023-02-12T17:14:20;7.00;85.70
69189;DHT22;56302;52.322;5.926;2023-02-12T17:16:47;7.00;85.40
69189;DHT22;56302;52.322;5.926;2023-02-12T17:19:12;7.00;84.90
69189;DHT22;56302;52.322;5.926;2023-02-12T17:21:42;7.00;85.10
69189;DHT22;56302;52.322;5.926;2023-02-12T17:24:22;7.00;86.10
69189;DHT22;56302;52.322;5.926;2023-02-12T17:26:49;6.90;86.90
69189;DHT22;56302;52.322;5.926;2023-02-12T17:29:19;6.90;87.20
69189;DHT22;56302;52.322;5.926;2023-02-12T17:31:46;6.80;87.30
69189;DHT22;56302;52.322;5.926;2023-02-12T17:34:12;6.80;87.40
69189;DHT22;56302;52.322;5.926;2023-02-12T17:36:38;6.80;87.40
69189;DHT22;56302;52.322;5.926;2023-02-12T17:39:05;6.80;87.40
69189;DHT22;56302;52.322;5.926;2023-02-12T17:41:31;6.80;87.60
69189;DHT22;56302;52.322;5.926;2023-02-12T17:43:56;6.70;87.30
69189;DHT22;56302;52.322;5.926;2023-02-12T17:46:23;6.70;88.00
69189;DHT22;56302;52.322;5.926;2023-02-12T17:48:49;6.70;88.10
69189;DHT22;56302;52.322;5.926;2023-02-12T17:51:15;6.70;88.40
69189;DHT22;56302;52.322;5.926;2023-02-12T17:53:41;6.70;88.30
69189;DHT22;56302;52.322;5.926;2023-02-12T17:56:15;6.70;88.40
69189;DHT22;56302;52.322;5.926;2023-02-12T17:58:42;6.60;88.00
69189;DHT22;56302;52.322;5.926;2023-02-12T18:01:11;6.60;87.60
69189;DHT22;56302;52.322;5.926;2023-02-12T18:03:37;6.60;87.70
69189;DHT22;56302;52.322;5.926;2023-02-12T18:06:03;6.60;88.20
69189;DHT22;56302;52.322;5.926;2023-02-12T18:08:30;6.60;88.30
69189;DHT22;56302;52.322;5.926;2023-02-12T18:10:56;6.60;88.70
69189;DHT22;56302;52.322;5.926;2023-02-12T18:13:21;6.60;89.10
69189;DHT22;56302;52.322;5.926;2023-02-12T18:15:47;6.50;88.70
69189;DHT22;56302;52.322;5.926;2023-02-12T18:18:13;6.60;88.40
69189;DHT22;56302;52.322;5.926;2023-02-12T18:20:41;6.60;89.00
69189;DHT22;56302;52.322;5.926;2023-02-12T18:23:07;6.50;88.90
69189;DHT22;56302;52.322;5.926;2023-02-12T18:25:33;6.50;88.30
69189;DHT22;56302;52.322;5.926;2023-02-12T18:27:59;6.50;88.40
69189;DHT22;56302;52.322;5.926;2023-02-12T18:30:28;6.50;89.00